Time;durP1;ratioP1;P1;durP2;ratioP2;P2;SDS_P1;SDS_P2;PMS_P1;PMS_P2;Temp;Humidity;BMP_temperature;BMP_pressure;BME280_temperature;BME280_humidity;BME280_pressure;Samples;Min_cycle;Max_cycle;Signal;HPM_P1;HPM_P2
2022/11/08 07:13:30;;;;;;;10.32;1.55;;;;;;;3.65;100.00;98788.66;5086607;27;20911;-79
2022/11/08 07:15:58;;;;;;;4.45;1.80;;;;;;;3.77;100.00;98789.31;5051069;28;20504;-79
2022/11/08 07:18:25;;;;;;;3.50;1.92;;;;;;;3.87;100.00;98792.78;5055288;28;21315;-80
2022/11/08 07:20:52;;;;;;;5.75;1.83;;;;;;;4.03;100.00;98801.00;5067891;28;20047;-79
2022/11/08 07:23:19;;;;;;;3.42;1.80;;;;;;;4.05;100.00;98769.44;5066969;28;20048;-79
2022/11/08 07:25:45;;;;;;;2.20;1.55;;;;;;;4.23;100.00;98782.03;5067909;28;20052;-79
2022/11/08 07:28:15;;;;;;;13.07;2.30;;;;;;;4.43;100.00;98805.09;5067287;28;20064;-80
2022/11/08 07:30:43;;;;;;;8.85;2.38;;;;;;;4.52;100.00;98797.13;5067483;28;20492;-79
2022/11/08 07:33:10;;;;;;;2.33;1.73;;;;;;;4.57;100.00;98790.25;5065211;28;20063;-79
2022/11/08 07:35:37;;;;;;;4.75;1.80;;;;;;;4.55;100.00;98778.78;5066555;28;20054;-79
2022/11/08 07:38:03;;;;;;;3.15;1.52;;;;;;;4.59;100.00;98784.69;5067181;28;20041;-79
2022/11/08 07:40:30;;;;;;;4.85;1.90;;;;;;;4.72;100.00;98771.69;5067271;28;20059;-79
2022/11/08 07:42:57;;;;;;;7.13;2.60;;;;;;;4.77;100.00;98795.44;5066728;28;20048;-79
2022/11/08 07:45:24;;;;;;;9.95;4.07;;;;;;;4.75;100.00;98803.69;5066992;28;20080;-79
2022/11/08 07:47:58;;;;;;;9.32;3.70;;;;;;;4.82;100.00;98806.59;5062382;28;20037;-79
2022/11/08 07:50:24;;;;;;;4.40;2.58;;;;;;;4.78;100.00;98784.50;5066477;28;20049;-80
2022/11/08 07:52:51;;;;;;;8.50;2.05;;;;;;;4.97;100.00;98796.13;5064051;28;20047;-80
2022/11/08 07:55:18;;;;;;;6.15;3.67;;;;;;;4.77;100.00;98792.75;5066749;28;20475;-80
2022/11/08 07:57:45;;;;;;;9.07;4.93;;;;;;;4.91;100.00;98810.22;5066967;28;20053;-80
2022/11/08 08:00:13;;;;;;;10.93;5.30;;;;;;;4.89;100.00;98805.00;5066473;28;20064;-80
2022/11/08 08:02:40;;;;;;;11.52;5.80;;;;;;;4.96;100.00;98814.09;5066478;28;20099;-80
2022/11/08 08:05:09;;;;;;;8.43;5.38;;;;;;;4.82;100.00;98776.97;5066376;28;20055;-80
2022/11/08 08:07:36;;;;;;;10.13;5.82;;;;;;;5.00;100.00;98798.50;5067219;28;20127;-80
2022/11/08 08:10:03;;;;;;;7.38;5.90;;;;;;;5.08;100.00;98797.69;5064160;28;20044;-80
2022/11/08 08:12:29;;;;;;;11.60;6.00;;;;;;;5.10;100.00;98774.97;5065563;28;20123;-81
2022/11/08 08:14:56;;;;;;;11.30;5.20;;;;;;;5.25;100.00;98769.81;5066011;28;20053;-80
2022/11/08 08:17:22;;;;;;;9.18;6.75;;;;;;;5.44;100.00;98779.53;5065530;28;20064;-79
2022/11/08 08:19:49;;;;;;;5.82;4.75;;;;;;;5.58;100.00;98753.78;5066827;28;20064;-80
2022/11/08 08:22:17;;;;;;;12.65;4.75;;;;;;;5.40;100.00;98718.00;5065697;28;20119;-79
2022/11/08 08:24:43;;;;;;;10.82;5.07;;;;;;;5.57;100.00;98714.38;5053161;28;20052;-80
2022/11/08 08:27:11;;;;;;;5.28;2.75;;;;;;;5.87;100.00;98725.53;5047309;28;20048;-80
2022/11/08 08:29:37;;;;;;;6.28;2.58;;;;;;;6.34;100.00;98743.03;5053101;28;20229;-79
2022/11/08 08:32:04;;;;;;;3.53;2.70;;;;;;;6.51;100.00;98727.66;5052184;28;20045;-80
2022/11/08 08:34:31;;;;;;;8.38;4.68;;;;;;;6.68;100.00;98756.34;5053204;28;20082;-80
2022/11/08 08:36:58;;;;;;;6.90;3.17;;;;;;;6.77;100.00;98775.25;5053309;28;20064;-81
2022/11/08 08:39:25;;;;;;;3.63;2.20;;;;;;;6.77;100.00;98775.25;5053028;28;20049;-80
2022/11/08 08:41:52;;;;;;;15.20;3.28;;;;;;;6.86;100.00;98775.06;5053117;28;20203;-80
2022/11/08 08:44:19;;;;;;;7.30;2.88;;;;;;;6.91;100.00;98758.38;5048618;28;20160;-80
2022/11/08 08:46:45;;;;;;;8.73;3.63;;;;;;;7.16;100.00;98779.94;5052058;28;20063;-80
2022/11/08 08:49:12;;;;;;;12.55;3.42;;;;;;;7.18;100.00;98767.06;5049293;28;20148;-80
2022/11/08 08:51:38;;;;;;;9.85;2.92;;;;;;;7.38;100.00;98781.91;5052776;28;20048;-80
2022/11/08 08:54:05;;;;;;;5.47;3.30;;;;;;;7.44;100.00;98751.44;5052121;28;20053;-80
2022/11/08 08:56:33;;;;;;;6.40;2.90;;;;;;;7.82;100.00;98768.88;5052692;28;20128;-80
2022/11/08 08:59:00;;;;;;;8.30;2.88;;;;;;;7.98;100.00;98756.09;5053016;28;20127;-80
2022/11/08 09:01:27;;;;;;;5.75;1.85;;;;;;;8.19;100.00;98761.88;5052700;28;20432;-81
2022/11/08 09:03:53;;;;;;;5.80;2.28;;;;;;;8.46;100.00;98783.06;5050456;28;20049;-80
2022/11/08 09:06:20;;;;;;;12.57;2.30;;;;;;;8.49;100.00;98760.16;5051068;28;20056;-80
2022/11/08 09:08:46;;;;;;;6.13;2.53;;;;;;;8.61;100.00;98753.31;5052368;28;20063;-81
2022/11/08 09:11:13;;;;;;;6.03;2.60;;;;;;;8.76;100.00;98757.91;5052063;28;20052;-81
2022/11/08 09:13:41;;;;;;;13.77;2.17;;;;;;;8.91;100.00;98772.34;5051900;28;20053;-81
2022/11/08 09:16:09;;;;;;;5.10;2.13;;;;;;;9.00;100.00;98773.13;5052032;28;20053;-81
2022/11/08 09:18:36;;;;;;;7.18;2.20;;;;;;;9.12;100.00;98785.22;5052301;28;20420;-81
2022/11/08 09:21:03;;;;;;;3.25;1.70;;;;;;;9.19;100.00;98793.44;5050609;28;20060;-81
2022/11/08 09:23:30;;;;;;;7.88;2.10;;;;;;;9.11;100.00;98769.09;5050253;28;20056;-81
2022/11/08 09:25:57;;;;;;;3.30;1.95;;;;;;;9.28;100.00;98781.47;5051068;28;20045;-81
2022/11/08 09:28:24;;;;;;;6.22;2.00;;;;;;;9.51;100.00;98805.81;5051162;28;20082;-81
2022/11/08 09:30:52;;;;;;;3.10;1.92;;;;;;;9.59;100.00;98785.91;5051821;28;20053;-81
2022/11/08 09:33:18;;;;;;;8.18;1.80;;;;;;;9.75;100.00;98787.53;5049835;28;20136;-81
2022/11/08 09:35:46;;;;;;;4.80;1.80;;;;;;;9.89;100.00;98808.41;5051019;28;20045;-81
2022/11/08 09:38:12;;;;;;;4.60;1.45;;;;;;;9.82;100.00;98780.34;5050771;28;20057;-81
2022/11/08 09:40:44;;;;;;;5.07;2.33;;;;;;;9.90;100.00;98771.25;5051582;28;20049;-81
2022/11/08 09:43:28;;;;;;;5.47;1.90;;;;;;;9.99;100.00;98774.69;5051115;28;20539;-81
2022/11/08 09:45:57;;;;;;;11.27;2.38;;;;;;;10.16;100.00;98799.75;5051729;28;20088;-81
2022/11/08 09:48:27;;;;;;;3.22;1.63;;;;;;;10.22;100.00;98798.97;5051624;28;20136;-81
2022/11/08 09:50:57;;;;;;;4.90;1.90;;;;;;;10.19;100.00;98783.94;5051120;28;20543;-81
2022/11/08 09:53:34;;;;;;;3.65;1.83;;;;;;;10.31;100.00;98792.38;5030760;28;20132;-81
2022/11/08 09:56:06;;;;;;;3.45;1.77;;;;;;;10.30;100.00;98781.72;5043511;28;20045;-81
2022/11/08 09:58:37;;;;;;;3.25;1.33;;;;;;;10.38;100.00;98793.34;5051491;28;20055;-81
2022/11/08 10:01:05;;;;;;;2.03;1.20;;;;;;;10.55;100.00;98793.94;5051435;28;20138;-81
2022/11/08 10:03:32;;;;;;;4.47;1.73;;;;;;;10.62;98.83;98789.41;5051136;28;20132;-81
2022/11/08 10:06:28;;;;;;;2.35;1.58;;;;;;;10.85;100.00;98788.34;5051521;28;20139;-81
2022/11/08 10:09:05;;;;;;;3.47;1.27;;;;;;;11.11;94.96;98793.19;5050984;28;20396;-81
2022/11/08 10:11:43;;;;;;;2.70;1.67;;;;;;;11.32;94.01;98775.09;5050821;28;20056;-81
2022/11/08 10:14:32;;;;;;;6.90;1.52;;;;;;;11.44;90.94;98780.81;5030341;28;20089;-81
2022/11/08 10:17:12;;;;;;;2.93;1.63;;;;;;;11.63;93.75;98792.88;5043483;28;20049;-81
2022/11/08 10:19:52;;;;;;;;;;;;;;;11.80;88.85;98802.41;5043436;28;20067;-81
2022/11/08 10:22:30;;;;;;;3.65;1.10;;;;;;;11.85;87.81;98786.28;5049471;28;19920;-81
2022/11/08 10:25:00;;;;;;;5.15;1.33;;;;;;;11.92;81.26;98778.13;5051011;28;20053;-82
2022/11/08 10:27:33;;;;;;;4.13;1.25;;;;;;;12.13;81.69;98792.72;5049793;28;20123;-81
2022/11/08 10:30:05;;;;;;;2.25;1.40;;;;;;;12.03;80.74;98768.59;5050799;28;20057;-81
2022/11/08 10:32:35;;;;;;;2.60;1.25;;;;;;;12.21;83.12;98787.09;5049840;28;20496;-81
2022/11/08 10:35:07;;;;;;;;;;;;;;;12.24;82.64;98786.69;5051020;28;20049;-81
2022/11/08 10:37:34;;;;;;;4.22;0.80;;;;;;;12.24;82.32;98788.56;5048681;28;19927;-81
2022/11/08 10:40:11;;;;;;;2.28;0.93;;;;;;;12.24;81.65;98775.78;5050371;28;20049;-82
2022/11/08 10:42:44;;;;;;;3.28;1.27;;;;;;;12.27;83.71;98769.06;5049906;28;20045;-81
2022/11/08 10:45:11;;;;;;;7.90;1.10;;;;;;;12.19;79.79;98773.69;5050421;28;20048;-82
2022/11/08 10:47:40;;;;;;;1.30;0.95;;;;;;;12.18;79.34;98761.09;5050713;28;20045;-82
2022/11/08 10:50:14;;;;;;;1.92;1.10;;;;;;;12.41;79.97;98787.16;5050807;28;20044;-82
2022/11/08 10:52:44;;;;;;;2.65;1.45;;;;;;;12.50;79.72;98776.91;5049957;28;20049;-82
2022/11/08 10:55:25;;;;;;;3.58;0.95;;;;;;;12.40;78.10;98747.31;5048299;28;20053;-82
2022/11/08 10:57:52;;;;;;;1.83;1.10;;;;;;;12.41;76.39;98754.44;5049620;28;20131;-82
2022/11/08 11:00:28;;;;;;;8.70;2.88;;;;;;;12.60;77.57;98762.84;5050406;28;20647;-82
2022/11/08 11:02:58;;;;;;;6.40;1.40;;;;;;;12.59;78.11;98756.56;5049835;28;20094;-82
2022/11/08 11:05:35;;;;;;;1.98;1.17;;;;;;;12.54;79.34;98749.00;5050434;28;20124;-82
2022/11/08 11:08:16;;;;;;;7.85;1.98;;;;;;;12.74;79.46;98768.13;5050551;28;20049;-82
2022/11/08 11:10:44;;;;;;;8.27;2.58;;;;;;;12.66;77.58;98738.34;5050470;28;20053;-81
2022/11/08 11:13:13;;;;;;;7.35;3.60;;;;;;;12.84;76.22;98758.66;5047408;28;20041;-81
2022/11/08 11:15:45;;;;;;;2.30;1.50;;;;;;;12.71;77.44;98724.06;5049390;28;20539;-82
2022/11/08 11:18:26;;;;;;;3.65;1.40;;;;;;;12.73;78.11;98732.88;5048932;28;20049;-82
2022/11/08 11:21:01;;;;;;;6.70;1.13;;;;;;;12.75;78.18;98753.44;5050193;28;20528;-81
2022/11/08 11:23:42;;;;;;;6.18;1.10;;;;;;;12.63;78.80;98724.25;5049516;28;20512;-81
2022/11/08 11:26:19;;;;;;;4.57;1.40;;;;;;;12.67;77.81;98731.81;5050645;28;20053;-82
2022/11/08 11:29:20;;;;;;;3.17;1.20;;;;;;;12.65;79.04;98724.91;5047437;28;20123;-82
2022/11/08 11:31:49;;;;;;;4.15;1.42;;;;;;;12.74;78.86;98715.47;5027102;28;20053;-82
2022/11/08 11:34:36;;;;;;;1.80;1.20;;;;;;;12.88;79.48;98733.47;5044723;28;20098;-82
2022/11/08 11:37:12;;;;;;;0.98;0.80;;;;;;;12.84;77.61;98713.16;5049995;28;20055;-82
2022/11/08 11:39:48;;;;;;;3.42;1.00;;;;;;;13.08;76.87;98728.03;5050175;28;20499;-82
2022/11/08 11:42:19;;;;;;;2.10;1.30;;;;;;;13.00;76.13;98700.94;5049071;28;20272;-82
2022/11/08 11:44:55;;;;;;;4.60;1.05;;;;;;;13.24;76.70;98732.19;5043135;28;20075;-82
2022/11/08 11:47:30;;;;;;;3.63;1.60;;;;;;;13.09;78.20;98713.31;5049660;28;20049;-82
2022/11/08 11:50:04;;;;;;;5.55;2.10;;;;;;;13.26;75.03;98721.91;5050242;28;20053;-81
2022/11/08 11:52:31;;;;;;;6.97;2.05;;;;;;;13.18;76.31;98699.47;5049541;28;20124;-82
2022/11/08 11:54:58;;;;;;;13.13;5.05;;;;;;;13.30;76.08;98722.31;5050011;28;20075;-82
2022/11/08 11:57:35;;;;;;;6.30;2.45;;;;;;;13.10;74.45;98697.81;5049997;28;20452;-82
2022/11/08 12:00:05;;;;;;;4.78;3.50;;;;;;;13.14;74.31;98707.22;5053084;28;20040;-82
2022/11/08 12:03:07;;;;;;;3.90;1.67;;;;;;;13.14;76.57;98696.31;5052945;28;20045;-82
2022/11/08 12:05:50;;;;;;;5.70;1.80;;;;;;;13.11;73.52;98704.91;5054061;28;20140;-82
2022/11/08 12:08:24;;;;;;;3.10;1.80;;;;;;;13.17;75.97;98704.09;5053793;28;20119;-82
2022/11/08 12:11:15;;;;;;;2.55;1.33;;;;;;;13.39;75.42;98722.97;5053629;28;20056;-82
2022/11/08 12:13:54;;;;;;;4.95;1.30;;;;;;;13.33;74.62;98699.22;5052866;28;20037;-82
2022/11/08 12:16:27;;;;;;;1.70;1.40;;;;;;;13.38;73.04;98702.16;5052560;28;20492;-81
2022/11/08 12:19:08;;;;;;;4.28;1.35;;;;;;;13.39;74.90;98698.38;5053593;28;20059;-82
2022/11/08 12:21:47;;;;;;;2.53;1.30;;;;;;;13.78;73.32;98724.72;5054103;28;20056;-82
2022/11/08 12:24:33;;;;;;;2.65;1.13;;;;;;;13.95;70.47;98694.16;5046699;28;20136;-82
2022/11/08 12:27:09;;;;;;;2.05;1.10;;;;;;;14.01;70.46;98681.53;5053638;28;20049;-82
2022/11/08 12:29:43;;;;;;;2.58;1.35;;;;;;;14.06;69.39;98696.22;5050693;28;20129;-81
2022/11/08 12:32:26;;;;;;;5.20;1.48;;;;;;;13.91;66.82;98685.56;5049790;28;20423;-82
2022/11/08 12:35:06;;;;;;;15.45;7.32;;;;;;;13.91;68.68;98685.56;5033326;28;20048;-82
2022/11/08 12:37:50;;;;;;;3.92;2.10;;;;;;;13.99;70.95;98690.78;5033151;28;20509;-82
2022/11/08 12:40:22;;;;;;;3.53;1.58;;;;;;;13.97;68.56;98675.63;5033374;28;20050;-82
2022/11/08 12:43:09;;;;;;;2.03;0.88;;;;;;;14.06;69.20;98671.63;5032542;28;20084;-82
2022/11/08 12:45:51;;;;;;;1.75;1.20;;;;;;;14.02;69.32;98666.81;5040267;28;20132;-82
2022/11/08 12:48:28;;;;;;;3.88;1.40;;;;;;;14.04;70.92;98679.19;5052869;28;20049;-82
2022/11/08 12:51:04;;;;;;;1.92;1.60;;;;;;;14.01;73.34;98663.22;5050886;28;20098;-82
2022/11/08 12:53:49;;;;;;;3.17;0.98;;;;;;;14.12;73.09;98675.34;5050976;28;20140;-82
2022/11/08 12:56:21;;;;;;;3.92;1.50;;;;;;;13.96;72.89;98650.22;5053035;28;20096;-82
2022/11/08 12:58:50;;;;;;;2.13;1.20;;;;;;;14.11;71.81;98649.91;5052378;28;20053;-82
2022/11/08 13:01:19;;;;;;;2.42;1.15;;;;;;;14.15;72.36;98664.81;5049123;28;20408;-82
2022/11/08 13:04:14;;;;;;;3.30;1.70;;;;;;;14.03;73.43;98628.34;5051180;28;20560;-82
2022/11/08 13:06:44;;;;;;;2.95;1.27;;;;;;;14.03;73.48;98642.00;5047696;28;20044;-82
2022/11/08 13:09:22;;;;;;;1.52;1.20;;;;;;;14.14;73.62;98652.22;5052240;28;20076;-82
2022/11/08 13:11:59;;;;;;;2.50;1.25;;;;;;;14.16;73.11;98654.72;5052699;28;20059;-82
2022/11/08 13:14:26;;;;;;;4.53;1.23;;;;;;;14.20;73.79;98653.22;5051185;28;20049;-82
2022/11/08 13:17:16;;;;;;;4.25;1.20;;;;;;;14.35;74.69;98655.66;5051324;28;20055;-82
2022/11/08 13:19:55;;;;;;;4.15;1.10;;;;;;;14.40;72.36;98646.78;5052097;28;20053;-82
2022/11/08 13:22:46;;;;;;;5.38;1.35;;;;;;;14.43;73.15;98638.94;5051847;28;20527;-82
2022/11/08 13:25:42;;;;;;;1.45;1.02;;;;;;;14.52;71.91;98661.41;5052447;28;20088;-82
2022/11/08 13:28:39;;;;;;;4.13;1.30;;;;;;;14.56;72.16;98645.38;5051757;28;20045;-82
2022/11/08 13:31:27;;;;;;;2.78;1.10;;;;;;;14.52;73.13;98639.50;5052367;28;20059;-82
2022/11/08 13:34:09;;;;;;;2.22;1.10;;;;;;;14.60;72.39;98650.19;5051404;28;20094;-82
2022/11/08 13:36:46;;;;;;;3.00;1.05;;;;;;;14.54;72.43;98636.56;5052396;28;20053;-82
2022/11/08 13:39:41;;;;;;;2.60;1.40;;;;;;;14.49;71.85;98635.31;5051844;28;20408;-82
2022/11/08 13:42:39;;;;;;;2.00;1.15;;;;;;;14.49;73.49;98646.25;5047626;28;20045;-82
2022/11/08 13:45:25;;;;;;;2.17;1.00;;;;;;;14.39;72.80;98636.88;5051739;28;20102;-81
2022/11/08 13:47:58;;;;;;;6.75;1.13;;;;;;;14.30;73.62;98625.38;5051710;28;20049;-79
2022/11/08 13:50:46;;;;;;;2.58;0.93;;;;;;;14.21;74.32;98622.09;5051602;28;20057;-79
2022/11/08 13:53:39;;;;;;;2.80;1.30;;;;;;;14.23;74.75;98625.44;5050055;28;20449;-79
2022/11/08 13:56:25;;;;;;;2.15;1.25;;;;;;;14.24;75.29;98638.06;5044918;28;20083;-79
2022/11/08 13:58:53;;;;;;;1.75;1.17;;;;;;;14.16;75.82;98630.94;5047932;28;20507;-80
2022/11/08 14:01:56;;;;;;;2.70;1.15;;;;;;;14.16;77.02;98635.59;5051102;28;20492;-79
2022/11/08 14:04:25;;;;;;;3.30;1.20;;;;;;;14.22;76.35;98634.69;5051050;28;20049;-79
2022/11/08 14:07:01;;;;;;;2.80;1.48;;;;;;;14.29;77.34;98635.50;5050181;28;20059;-79
2022/11/08 14:09:39;;;;;;;4.72;1.98;;;;;;;14.23;79.62;98636.38;5049666;28;20060;-79
2022/11/08 14:12:14;;;;;;;2.85;1.20;;;;;;;14.23;77.83;98641.84;5050411;28;20071;-79
2022/11/08 14:14:48;;;;;;;4.22;1.10;;;;;;;14.29;80.09;98631.94;5051179;28;20045;-79
2022/11/08 14:17:39;;;;;;;3.20;1.65;;;;;;;14.25;79.97;98622.50;5034685;28;20049;-79
2022/11/08 14:20:23;;;;;;;4.05;1.23;;;;;;;14.16;81.00;98621.91;5048580;28;20051;-79
2022/11/08 14:22:49;;;;;;;1.80;1.00;;;;;;;14.04;83.14;98621.78;5048017;28;20071;-79
2022/11/08 14:25:22;;;;;;;1.83;1.15;;;;;;;14.04;83.20;98627.25;5043822;28;20045;-79
2022/11/08 14:27:48;;;;;;;4.38;1.77;;;;;;;13.95;83.28;98640.34;5047809;28;20551;-79
2022/11/08 14:30:20;;;;;;;4.68;1.70;;;;;;;13.80;84.73;98617.94;5048872;28;20099;-79
2022/11/08 14:32:47;;;;;;;1.67;1.23;;;;;;;13.71;81.89;98616.53;5047419;28;20111;-79
2022/11/08 14:35:21;;;;;;;3.00;1.30;;;;;;;13.83;81.60;98633.06;5046151;28;20139;-79
2022/11/08 14:37:48;;;;;;;5.55;3.53;;;;;;;13.82;84.03;98640.44;5046290;28;20055;-80
2022/11/08 14:40:20;;;;;;;5.40;1.05;;;;;;;13.60;84.57;98618.06;5047712;28;20052;-80
2022/11/08 14:42:46;;;;;;;2.53;1.33;;;;;;;13.60;85.64;98613.44;5047670;28;20080;-80
2022/11/08 14:45:15;;;;;;;3.72;1.55;;;;;;;13.60;83.35;98610.69;5047970;28;20374;-79
2022/11/08 14:47:44;;;;;;;1.90;1.42;;;;;;;13.64;85.55;98622.03;5047854;28;20057;-80
2022/11/08 14:50:17;;;;;;;2.07;1.27;;;;;;;13.50;86.06;98613.06;5048336;28;20053;-80
2022/11/08 14:52:43;;;;;;;3.53;2.13;;;;;;;13.44;86.11;98616.66;5048401;28;20045;-79
2022/11/08 14:55:12;;;;;;;2.55;1.17;;;;;;;13.50;85.55;98637.63;5047179;28;20045;-79
2022/11/08 14:57:40;;;;;;;2.83;1.50;;;;;;;13.35;86.43;98626.16;5042577;28;20150;-79
2022/11/08 15:00:15;;;;;;;4.05;1.23;;;;;;;13.14;88.25;98610.88;5047884;28;20135;-79
2022/11/08 15:02:46;;;;;;;4.97;1.50;;;;;;;13.16;89.48;98626.00;5046745;28;20056;-80
2022/11/08 15:05:29;;;;;;;4.43;1.20;;;;;;;13.10;88.29;98626.84;5047940;28;20044;-80
2022/11/08 15:07:56;;;;;;;1.98;1.23;;;;;;;12.98;87.00;98613.03;5049429;28;20071;-79
2022/11/08 15:10:23;;;;;;;3.13;1.30;;;;;;;13.02;85.85;98627.06;5047300;28;20045;-80
2022/11/08 15:12:50;;;;;;;2.58;1.50;;;;;;;12.98;89.32;98629.41;5047558;28;20214;-80
2022/11/08 15:15:21;;;;;;;3.83;1.38;;;;;;;12.87;84.58;98608.22;5047807;28;20041;-80
2022/11/08 15:18:10;;;;;;;2.55;1.25;;;;;;;12.92;83.56;98606.53;5046511;28;20055;-80
2022/11/08 15:20:37;;;;;;;2.97;1.30;;;;;;;12.82;83.49;98594.38;5048176;28;20053;-80
2022/11/08 15:23:23;;;;;;;4.20;1.40;;;;;;;12.65;87.14;98600.28;5046908;28;20067;-80
2022/11/08 15:25:55;;;;;;;4.15;1.50;;;;;;;12.52;87.24;98592.13;5047764;28;20053;-80
2022/11/08 15:28:24;;;;;;;2.17;1.40;;;;;;;12.56;85.69;98618.75;5048367;28;20048;-80
2022/11/08 15:30:55;;;;;;;3.35;1.73;;;;;;;12.47;88.07;98613.75;5047536;28;20511;-80
2022/11/08 15:33:24;;;;;;;3.63;1.33;;;;;;;12.25;87.27;98589.41;5040287;28;20052;-80
2022/11/08 15:35:51;;;;;;;4.10;1.50;;;;;;;12.21;86.83;98591.72;5051381;28;20476;-80
2022/11/08 15:38:28;;;;;;;6.28;1.20;;;;;;;12.29;87.65;98622.56;5051245;28;20048;-80
2022/11/08 15:40:57;;;;;;;2.45;1.40;;;;;;;12.19;87.06;98618.34;5051464;28;20071;-80
2022/11/08 15:43:37;;;;;;;1.87;1.30;;;;;;;12.18;85.43;98615.84;5051510;28;20060;-80
2022/11/08 15:46:05;;;;;;;2.42;1.17;;;;;;;12.09;86.14;98619.78;5049845;28;20426;-80
2022/11/08 15:48:33;;;;;;;2.10;1.15;;;;;;;11.96;83.70;98601.56;5051436;28;20136;-80
2022/11/08 15:51:00;;;;;;;1.95;1.30;;;;;;;12.09;84.39;98625.25;5051844;28;20079;-80
2022/11/08 15:53:27;;;;;;;4.63;1.40;;;;;;;11.97;84.32;98601.34;5051288;28;20061;-80
2022/11/08 15:55:58;;;;;;;3.08;1.40;;;;;;;11.86;85.27;98593.75;5046690;28;20048;-80
2022/11/08 15:58:28;;;;;;;6.80;1.40;;;;;;;11.90;86.61;98619.53;5051011;28;20060;-80
2022/11/08 16:00:55;;;;;;;;;;;;;;;11.84;86.89;98617.63;5044446;28;20455;-80
2022/11/08 16:03:22;;;;;;;3.85;1.33;;;;;;;11.81;85.37;98616.16;5049786;28;20003;-80
2022/11/08 16:05:50;;;;;;;2.25;1.10;;;;;;;11.84;86.35;98601.31;5052151;28;20135;-80
2022/11/08 16:08:16;;;;;;;7.90;5.47;;;;;;;11.64;86.86;98606.72;5051577;28;20048;-80
2022/11/08 16:10:45;;;;;;;15.02;7.88;;;;;;;11.41;88.56;98593.44;5052736;28;20051;-80
2022/11/08 16:13:17;;;;;;;8.63;1.67;;;;;;;11.45;89.41;98622.75;5052733;28;20063;-80
2022/11/08 16:15:44;;;;;;;6.10;2.22;;;;;;;11.29;91.23;98615.81;5048275;28;20162;-80
2022/11/08 16:18:12;;;;;;;5.15;1.60;;;;;;;11.19;92.51;98615.34;5049846;28;20136;-79
2022/11/08 16:20:38;;;;;;;4.80;1.70;;;;;;;11.20;94.58;98627.06;5050368;28;20052;-80
2022/11/08 16:23:08;;;;;;;4.20;1.60;;;;;;;11.15;95.57;98623.06;5050215;28;20055;-80
2022/11/08 16:25:36;;;;;;;;;;;;;;;11.14;95.21;98628.69;5050728;28;20048;-80
2022/11/08 16:28:05;;;;;;;3.97;1.38;;;;;;;10.89;94.94;98604.72;5051096;28;20288;-80
2022/11/08 16:30:32;;;;;;;3.03;1.73;;;;;;;10.93;94.20;98613.31;5050821;28;20053;-80
2022/11/08 16:32:59;;;;;;;3.15;1.80;;;;;;;10.90;98.03;98624.59;5047460;28;20037;-80
2022/11/08 16:35:26;;;;;;;3.30;1.58;;;;;;;10.73;100.00;98626.78;5048351;28;20045;-79
2022/11/08 16:37:53;;;;;;;3.40;1.60;;;;;;;10.58;100.00;98614.16;5050564;28;20132;-79
2022/11/08 16:40:23;;;;;;;4.20;1.70;;;;;;;10.49;100.00;98609.06;5050048;28;20478;-80
2022/11/08 16:42:51;;;;;;;4.05;1.70;;;;;;;10.50;100.00;98630.59;5049982;28;20052;-79
2022/11/08 16:45:19;;;;;;;3.85;2.22;;;;;;;10.36;100.00;98601.66;5049576;28;20489;-79
2022/11/08 16:47:48;;;;;;;4.88;2.30;;;;;;;10.35;100.00;98606.25;5048049;28;20045;-80
2022/11/08 16:50:17;;;;;;;5.90;2.22;;;;;;;10.29;100.00;98587.97;5047077;28;20132;-80
2022/11/08 16:52:44;;;;;;;5.25;2.28;;;;;;;10.21;100.00;98591.69;5049733;28;20427;-79
2022/11/08 16:55:12;;;;;;;4.18;1.50;;;;;;;10.36;100.00;98586.19;5049634;28;20401;-79
2022/11/08 16:57:41;;;;;;;3.17;1.45;;;;;;;10.33;100.00;98583.88;5050651;28;20526;-79
2022/11/08 17:00:11;;;;;;;3.38;1.25;;;;;;;10.53;98.92;98597.59;5049236;28;20051;-79
2022/11/08 17:02:40;;;;;;;3.70;1.98;;;;;;;10.54;99.50;98604.72;5042844;28;20049;-79
